createdAt,value
2023-01-09T00:02:19.259Z,57.58
2023-01-09T00:04:47.056Z,60.50
2023-01-09T00:07:15.157Z,52.95
2023-01-09T00:09:43.106Z,51.58
2023-01-09T00:12:11.100Z,51.90
2023-01-09T00:14:38.939Z,51.33
2023-01-09T00:17:06.904Z,63.43
2023-01-09T00:19:34.765Z,57.63
2023-01-09T00:22:03.204Z,48.58
2023-01-09T00:24:31.052Z,73.45
2023-01-09T00:26:59.342Z,45.65
2023-01-09T00:29:27.298Z,48.07
2023-01-09T00:31:55.280Z,80.35
2023-01-09T00:34:23.690Z,64.53
2023-01-09T00:36:55.789Z,53.28
2023-01-09T00:39:23.916Z,75.50
2023-01-09T00:41:55.323Z,46.80
2023-01-09T00:44:32.629Z,47.63
2023-01-09T00:47:08.368Z,53.38
2023-01-09T00:49:37.519Z,48.70
2023-01-09T00:52:08.112Z,43.97
2023-01-09T00:54:36.028Z,44.13
2023-01-09T00:57:04.307Z,57.30
2023-01-09T00:59:32.230Z,44.20
2023-01-09T01:02:00.524Z,46.78
2023-01-09T01:04:46.931Z,40.55
2023-01-09T01:07:33.792Z,36.43
2023-01-09T01:10:01.787Z,59.10
2023-01-09T01:12:30.095Z,52.55
2023-01-09T01:14:58.009Z,34.10
2023-01-09T01:17:26.387Z,48.05
2023-01-09T01:19:55.732Z,36.17
2023-01-09T01:22:23.959Z,46.10
2023-01-09T01:24:52.077Z,36.13
2023-01-09T01:27:20.093Z,47.65
2023-01-09T01:29:47.898Z,55.05
2023-01-09T01:32:15.920Z,37.13
2023-01-09T01:34:43.848Z,66.07
2023-01-09T01:37:11.907Z,37.92
2023-01-09T01:39:41.762Z,60.13
2023-01-09T01:42:15.660Z,55.72
2023-01-09T01:45:02.445Z,53.67
2023-01-09T01:48:01.396Z,61.13
2023-01-09T01:50:49.776Z,46.85
2023-01-09T01:53:20.491Z,46.40
2023-01-09T01:56:08.262Z,40.80
2023-01-09T01:58:50.596Z,38.37
2023-01-09T02:01:19.416Z,31.08
2023-01-09T02:03:47.925Z,36.90
2023-01-09T02:06:15.999Z,36.78
2023-01-09T02:08:44.683Z,60.03
2023-01-09T02:11:14.862Z,48.33
2023-01-09T02:13:43.582Z,44.03
2023-01-09T02:16:20.878Z,45.20
2023-01-09T02:19:20.827Z,31.83
2023-01-09T02:22:36.080Z,27.33
2023-01-09T02:25:28.810Z,33.27
2023-01-09T02:28:33.612Z,32.65
2023-01-09T02:31:20.696Z,45.15
2023-01-09T02:34:34.575Z,39.63
2023-01-09T02:37:15.499Z,31.17
2023-01-09T02:40:19.100Z,29.17
2023-01-09T02:42:48.747Z,39.97
2023-01-09T02:45:16.660Z,71.07
2023-01-09T02:47:47.197Z,39.88
2023-01-09T02:50:23.217Z,42.72
2023-01-09T02:52:54.469Z,44.93
2023-01-09T02:55:44.536Z,39.30
2023-01-09T02:58:35.784Z,39.00
2023-01-09T03:01:24.976Z,39.83
2023-01-09T03:04:17.746Z,26.98
2023-01-09T03:07:17.360Z,32.73
2023-01-09T03:09:50.867Z,31.05
2023-01-09T03:12:23.217Z,28.63
2023-01-09T03:14:56.913Z,24.00
2023-01-09T03:17:46.697Z,53.88
2023-01-09T03:20:20.048Z,28.87
2023-01-09T03:23:01.718Z,34.75
2023-01-09T03:25:31.583Z,29.63
2023-01-09T03:28:02.041Z,27.25
2023-01-09T03:30:32.782Z,31.73
2023-01-09T03:33:00.707Z,37.27
2023-01-09T03:35:29.106Z,31.98
2023-01-09T03:37:56.808Z,31.73
2023-01-09T03:40:24.674Z,33.25
2023-01-09T03:42:54.605Z,68.10
2023-01-09T03:45:22.894Z,65.17
2023-01-09T03:47:58.949Z,105.07
2023-01-09T03:50:27.301Z,63.20
2023-01-09T03:52:55.123Z,64.85
2023-01-09T03:55:23.438Z,43.95
2023-01-09T03:57:53.328Z,47.10
2023-01-09T04:00:22.256Z,44.85
2023-01-09T04:02:50.043Z,38.63
2023-01-09T04:05:18.624Z,39.40
2023-01-09T04:07:46.590Z,42.85
2023-01-09T04:10:15.017Z,24.50
2023-01-09T04:12:42.712Z,24.92
2023-01-09T04:19:27.021Z,35.50
2023-01-09T04:21:55.628Z,38.67
2023-01-09T04:24:23.397Z,34.63
2023-01-09T04:26:51.718Z,37.40
2023-01-09T04:29:20.429Z,54.10
2023-01-09T04:31:48.759Z,35.25
2023-01-09T04:34:16.685Z,38.85
2023-01-09T04:36:44.943Z,23.03
2023-01-09T04:39:12.772Z,28.83
2023-01-09T04:42:07.461Z,22.65
2023-01-09T04:44:35.232Z,36.55
2023-01-09T04:47:03.206Z,33.38
2023-01-09T04:49:33.161Z,30.97
2023-01-09T04:52:01.448Z,34.13
2023-01-09T04:54:29.182Z,24.48
2023-01-09T04:56:57.319Z,37.05
2023-01-09T04:59:25.050Z,30.88
2023-01-09T05:01:55.080Z,29.00
2023-01-09T05:04:23.051Z,25.70
2023-01-09T05:06:51.218Z,22.95
2023-01-09T05:09:19.244Z,28.85
2023-01-09T05:11:47.488Z,26.63
2023-01-09T05:14:15.513Z,28.73
2023-01-09T05:16:43.733Z,31.67
2023-01-09T05:19:12.232Z,47.45
2023-01-09T05:21:40.411Z,25.63
2023-01-09T05:24:08.424Z,43.08
2023-01-09T05:26:36.552Z,27.67
2023-01-09T05:29:04.388Z,32.63
2023-01-09T05:31:32.819Z,24.42
2023-01-09T05:34:01.306Z,63.97
2023-01-09T05:36:30.147Z,35.58
2023-01-09T05:39:03.032Z,42.70
2023-01-09T05:41:31.052Z,48.58
2023-01-09T05:43:58.967Z,54.28
2023-01-09T05:46:27.539Z,60.63
2023-01-09T05:48:55.285Z,41.17
2023-01-09T05:51:23.553Z,49.60
2023-01-09T05:53:51.395Z,26.42
2023-01-09T05:56:19.354Z,30.73
2023-01-09T05:58:47.105Z,35.17
2023-01-09T06:01:15.290Z,41.65
2023-01-09T06:03:43.399Z,33.53
2023-01-09T06:06:12.193Z,26.48
2023-01-09T06:08:39.904Z,26.20
2023-01-09T06:11:08.180Z,26.02
2023-01-09T06:13:35.963Z,29.42
2023-01-09T06:16:04.265Z,22.03
2023-01-09T06:18:32.083Z,23.83
2023-01-09T06:21:00.287Z,29.58
2023-01-09T06:23:28.093Z,23.80
2023-01-09T06:25:56.262Z,27.60
2023-01-09T06:28:24.181Z,26.30
2023-01-09T06:30:52.966Z,30.52
2023-01-09T06:33:20.901Z,37.70
2023-01-09T06:35:49.251Z,30.00
2023-01-09T06:38:17.185Z,30.90
2023-01-09T06:40:45.571Z,29.17
2023-01-09T06:43:13.361Z,25.63
2023-01-09T06:45:43.946Z,36.65
2023-01-09T06:48:12.628Z,31.90
2023-01-09T06:50:41.146Z,48.13
2023-01-09T06:53:10.986Z,33.27
2023-01-09T06:55:39.461Z,44.00
2023-01-09T06:58:07.296Z,53.75
2023-01-09T07:00:35.639Z,52.53
2023-01-09T07:03:04.344Z,37.08
2023-01-09T07:05:39.005Z,36.13
2023-01-09T07:08:06.973Z,37.47
2023-01-09T07:10:35.124Z,36.85
2023-01-09T07:13:02.978Z,38.13
2023-01-09T07:15:31.214Z,41.47
2023-01-09T07:17:59.705Z,70.53
2023-01-09T07:20:28.035Z,41.28
2023-01-09T07:22:56.447Z,45.95
2023-01-09T07:25:24.835Z,47.33
2023-01-09T07:27:52.960Z,42.50
2023-01-09T07:30:24.615Z,48.97
2023-01-09T07:32:53.892Z,57.58
2023-01-09T07:35:22.226Z,47.85
2023-01-09T07:37:50.398Z,46.13
2023-01-09T07:40:18.820Z,42.03
2023-01-09T07:42:47.020Z,50.13
2023-01-09T07:45:15.487Z,38.10
2023-01-09T07:47:44.150Z,40.05
2023-01-09T07:50:12.541Z,43.63
2023-01-09T07:52:40.867Z,44.90
2023-01-09T07:55:12.821Z,60.70
2023-01-09T07:57:41.188Z,45.42
2023-01-09T08:00:11.494Z,73.78
2023-01-09T08:02:40.250Z,65.65
2023-01-09T08:05:09.684Z,60.67
2023-01-09T08:07:38.304Z,54.73
2023-01-09T08:10:06.641Z,58.53
2023-01-09T08:12:34.979Z,40.60
2023-01-09T08:15:03.096Z,44.45
2023-01-09T08:17:31.449Z,34.88
2023-01-09T08:19:59.481Z,35.10
2023-01-09T08:22:27.859Z,47.10
2023-01-09T08:24:55.804Z,64.53
2023-01-09T08:27:24.435Z,55.30
2023-01-09T08:29:52.467Z,62.63
2023-01-09T08:32:20.805Z,54.73
2023-01-09T08:34:48.972Z,66.20
2023-01-09T08:37:17.274Z,68.60
2023-01-09T08:39:46.149Z,58.22
2023-01-09T08:47:05.979Z,69.40
2023-01-09T08:49:36.028Z,70.47
2023-01-09T08:55:34.462Z,61.70
2023-01-09T09:01:00.497Z,71.13
2023-01-09T09:03:28.541Z,61.03
2023-01-09T09:05:57.305Z,60.13
2023-01-09T09:13:02.614Z,73.78
2023-01-09T09:15:31.946Z,78.90
2023-01-09T09:18:02.659Z,70.40
2023-01-09T09:20:36.131Z,74.10
2023-01-09T09:23:05.113Z,66.35
2023-01-09T09:25:33.325Z,81.38
2023-01-09T09:28:01.583Z,71.97
2023-01-09T09:30:29.909Z,72.10
2023-01-09T09:32:57.895Z,59.40
2023-01-09T09:35:26.429Z,70.80
2023-01-09T09:38:04.976Z,64.13
2023-01-09T09:41:01.131Z,60.83
2023-01-09T09:44:09.389Z,53.63
2023-01-09T09:47:12.500Z,65.10
2023-01-09T09:50:00.876Z,61.38
2023-01-09T09:52:51.279Z,65.13
2023-01-09T09:55:30.550Z,71.20
2023-01-09T09:58:07.374Z,101.63
2023-01-09T10:00:36.060Z,87.70
2023-01-09T10:03:18.367Z,85.20
2023-01-09T10:05:54.648Z,78.32
2023-01-09T10:08:47.470Z,73.33
2023-01-09T10:11:32.258Z,64.05
2023-01-09T10:14:06.377Z,56.97
2023-01-09T10:16:48.626Z,42.85
2023-01-09T10:19:23.695Z,49.70
2023-01-09T10:22:31.187Z,38.63
2023-01-09T10:25:33.125Z,46.05
2023-01-09T10:28:41.219Z,35.35
2023-01-09T10:31:46.510Z,46.33
2023-01-09T10:34:43.259Z,53.65
2023-01-09T10:37:31.705Z,36.60
2023-01-09T10:40:32.467Z,36.78
2023-01-09T10:43:38.213Z,33.35
2023-01-09T10:46:26.665Z,28.95
2023-01-09T10:49:08.430Z,42.22
2023-01-09T10:51:43.464Z,41.80
2023-01-09T10:54:42.369Z,45.85
2023-01-09T10:57:31.440Z,33.10
2023-01-09T11:00:04.208Z,32.33
2023-01-09T11:02:50.261Z,32.28
2023-01-09T11:05:29.981Z,27.10
2023-01-09T11:08:16.764Z,24.08
2023-01-09T11:11:01.491Z,28.33
2023-01-09T11:13:36.360Z,32.10
2023-01-09T11:16:23.875Z,31.85
2023-01-09T11:19:00.840Z,32.73
2023-01-09T11:21:43.359Z,33.83
2023-01-09T11:24:24.315Z,30.10
2023-01-09T11:27:25.004Z,30.92
2023-01-09T11:30:12.005Z,35.25
2023-01-09T11:32:41.371Z,44.83
2023-01-09T11:35:23.527Z,38.03
2023-01-09T11:38:07.812Z,39.83
2023-01-09T11:40:50.775Z,41.33
2023-01-09T11:43:35.021Z,36.60
2023-01-09T11:46:20.314Z,36.97
2023-01-09T11:48:58.059Z,46.80
2023-01-09T11:51:36.317Z,47.72
2023-01-09T11:54:17.246Z,42.95
2023-01-09T11:56:47.130Z,41.10
2023-01-09T11:59:21.501Z,35.43
2023-01-09T12:02:14.479Z,40.88
2023-01-09T12:05:16.253Z,37.50
2023-01-09T12:08:10.155Z,37.85
2023-01-09T12:10:58.468Z,30.35
2023-01-09T12:13:43.252Z,32.67
2023-01-09T12:16:18.604Z,32.40
2023-01-09T12:19:05.628Z,34.97
2023-01-09T12:21:37.083Z,33.22
2023-01-09T12:24:42.183Z,31.88
2023-01-09T12:27:32.425Z,34.93
2023-01-09T12:30:16.376Z,39.92
2023-01-09T12:33:12.616Z,32.13
2023-01-09T12:36:10.674Z,30.60
2023-01-09T12:39:05.884Z,31.92
2023-01-09T12:41:57.067Z,31.20
2023-01-09T12:44:36.105Z,31.45
2023-01-09T12:47:26.944Z,34.00
2023-01-09T12:50:32.839Z,57.47
2023-01-09T12:53:24.341Z,53.47
2023-01-09T12:56:13.359Z,56.20
2023-01-09T12:58:53.582Z,54.55
2023-01-09T13:01:30.655Z,50.15
2023-01-09T13:04:10.985Z,62.50
2023-01-09T13:06:47.017Z,82.43
2023-01-09T13:09:26.595Z,53.43
2023-01-09T13:12:10.012Z,47.05
2023-01-09T13:14:52.571Z,46.33
2023-01-09T13:17:59.237Z,26.77
2023-01-09T13:20:35.966Z,25.35
2023-01-09T13:23:06.039Z,26.37
2023-01-09T13:25:44.575Z,29.15
2023-01-09T13:28:16.776Z,32.25
2023-01-09T13:31:06.699Z,32.90
2023-01-09T13:33:39.686Z,42.78
2023-01-09T13:36:08.284Z,45.47
2023-01-09T13:38:39.396Z,50.22
2023-01-09T13:41:34.085Z,37.92
2023-01-09T13:44:29.139Z,68.97
2023-01-09T13:47:01.121Z,64.88
2023-01-09T13:49:39.702Z,38.97
2023-01-09T13:52:32.122Z,42.78
2023-01-09T13:55:02.485Z,44.88
2023-01-09T13:57:35.925Z,55.50
2023-01-09T14:00:13.456Z,51.45
2023-01-09T14:02:45.382Z,62.17
2023-01-09T14:05:17.653Z,55.53
2023-01-09T14:07:49.586Z,56.03
2023-01-09T14:10:30.457Z,52.10
2023-01-09T14:12:58.981Z,56.50
2023-01-09T14:15:45.377Z,57.80
2023-01-09T14:18:29.996Z,73.25
2023-01-09T14:21:01.898Z,74.82
2023-01-09T14:23:50.820Z,65.90
2023-01-09T14:26:46.054Z,56.17
2023-01-09T14:29:29.698Z,59.83
2023-01-09T14:32:23.297Z,66.47
2023-01-09T14:35:13.797Z,52.25
2023-01-09T14:37:44.734Z,57.00
2023-01-09T14:40:24.075Z,53.65
2023-01-09T14:43:00.928Z,54.50
2023-01-09T14:45:31.089Z,137.85
2023-01-09T14:48:04.389Z,101.80
2023-01-09T14:50:46.035Z,62.28
2023-01-09T14:53:20.752Z,60.00
2023-01-09T14:55:58.605Z,63.60
2023-01-09T14:58:30.759Z,62.40
2023-01-09T15:01:23.412Z,64.22
2023-01-09T15:04:08.795Z,69.25
2023-01-09T15:06:47.569Z,65.25
2023-01-09T15:09:37.718Z,62.47
2023-01-09T15:12:09.086Z,52.45
2023-01-09T15:14:51.451Z,52.25
2023-01-09T15:17:31.114Z,59.65
2023-01-09T15:20:02.178Z,49.55
2023-01-09T15:22:33.113Z,47.17
2023-01-09T15:25:33.854Z,54.65
2023-01-09T15:28:32.540Z,57.88
2023-01-09T15:31:10.404Z,61.38
2023-01-09T15:33:41.053Z,69.75
2023-01-09T15:36:25.314Z,64.03
2023-01-09T15:38:54.734Z,53.78
2023-01-09T15:41:48.903Z,59.22
2023-01-09T15:44:23.291Z,71.47
2023-01-09T15:46:52.331Z,63.65
2023-01-09T15:49:20.984Z,77.57
2023-01-09T15:51:50.821Z,82.57
2023-01-09T15:54:28.951Z,81.13
2023-01-09T15:57:35.873Z,85.97
2023-01-09T16:00:42.139Z,113.28
2023-01-09T16:03:22.246Z,103.10
2023-01-09T16:05:54.179Z,96.13
2023-01-09T16:08:30.110Z,100.35
2023-01-09T16:11:02.503Z,114.22
2023-01-09T16:13:35.078Z,124.78
2023-01-09T16:16:03.864Z,125.23
2023-01-09T16:18:35.452Z,107.10
2023-01-09T16:21:12.948Z,102.45
2023-01-09T16:23:54.839Z,94.35
2023-01-09T16:26:25.725Z,91.90
2023-01-09T16:28:54.374Z,99.43
2023-01-09T16:31:25.903Z,172.93
2023-01-09T16:34:01.085Z,118.00
2023-01-09T16:36:29.092Z,110.05
2023-01-09T16:38:58.249Z,84.30
2023-01-09T16:41:44.873Z,88.47
2023-01-09T16:44:13.443Z,85.68
2023-01-09T16:46:44.129Z,78.55
2023-01-09T16:49:33.560Z,72.07
2023-01-09T16:52:03.434Z,82.07
2023-01-09T16:54:31.591Z,76.70
2023-01-09T16:57:01.437Z,66.72
2023-01-09T16:59:29.694Z,76.43
2023-01-09T17:01:57.423Z,79.53
2023-01-09T17:04:25.757Z,79.20
2023-01-09T17:06:53.599Z,93.87
2023-01-09T17:09:27.522Z,85.28
2023-01-09T17:11:56.694Z,76.60
2023-01-09T17:14:25.223Z,93.57
2023-01-09T17:16:53.235Z,102.32
2023-01-09T17:19:21.984Z,84.33
2023-01-09T17:21:49.835Z,80.07
2023-01-09T17:24:36.662Z,86.10
2023-01-09T17:27:23.490Z,83.25
2023-01-09T17:29:51.762Z,85.75
2023-01-09T17:32:20.265Z,70.80
2023-01-09T17:34:48.536Z,93.25
2023-01-09T17:37:18.099Z,105.70
2023-01-09T17:39:47.003Z,119.00
2023-01-09T17:42:14.846Z,127.20
2023-01-09T17:44:43.403Z,102.33
2023-01-09T17:47:25.203Z,97.72
2023-01-09T17:49:53.360Z,117.47
2023-01-09T17:52:22.324Z,120.05
2023-01-09T17:54:50.447Z,109.72
2023-01-09T17:57:18.304Z,111.53
2023-01-09T17:59:46.648Z,106.60
2023-01-09T18:02:18.833Z,117.30
2023-01-09T18:05:13.567Z,117.78
2023-01-09T18:07:41.416Z,209.23
2023-01-09T18:10:15.357Z,200.30
2023-01-09T18:19:37.239Z,191.35
2023-01-09T18:22:06.393Z,205.82
2023-01-09T18:24:34.697Z,111.23
2023-01-09T18:27:04.662Z,22.60
2023-01-09T18:29:32.901Z,11.77
2023-01-09T18:32:00.814Z,13.05
2023-01-09T18:34:29.261Z,12.27
2023-01-09T18:36:57.112Z,10.00
2023-01-09T18:39:26.333Z,9.32
2023-01-09T18:41:54.005Z,12.55
2023-01-09T18:44:22.651Z,11.55
2023-01-09T18:46:50.287Z,9.52
2023-01-09T18:49:18.569Z,11.87
2023-01-09T18:51:46.641Z,9.50
2023-01-09T18:55:18.234Z,11.38
2023-01-09T18:57:52.704Z,12.77
2023-01-09T19:00:21.392Z,10.20
2023-01-09T19:02:49.304Z,9.03
2023-01-09T19:05:17.422Z,8.77
2023-01-09T19:07:45.182Z,9.18
2023-01-09T19:10:14.021Z,10.60
2023-01-09T19:12:41.795Z,11.32
2023-01-09T19:15:12.180Z,12.50
2023-01-09T19:17:40.758Z,11.68
2023-01-09T19:20:12.014Z,8.98
2023-01-09T19:22:47.646Z,10.57
2023-01-09T19:25:21.991Z,11.15
2023-01-09T19:28:00.547Z,11.37
2023-01-09T19:30:42.185Z,9.48
2023-01-09T19:33:22.961Z,10.48
2023-01-09T19:36:07.759Z,9.85
2023-01-09T19:38:45.901Z,9.60
2023-01-09T19:41:36.503Z,10.07
2023-01-09T19:44:11.597Z,12.23
2023-01-09T19:46:40.747Z,8.98
2023-01-09T19:49:12.356Z,9.18
2023-01-09T19:51:40.963Z,8.07
2023-01-09T19:54:12.682Z,10.27
2023-01-09T19:56:44.346Z,9.95
2023-01-09T19:59:14.886Z,9.15
2023-01-09T20:01:45.664Z,11.85
2023-01-09T20:09:17.549Z,10.60
2023-01-09T20:11:46.621Z,10.60
2023-01-09T20:14:19.480Z,10.38
2023-01-09T20:16:53.219Z,11.75
2023-01-09T20:19:21.408Z,9.85
2023-01-09T20:21:49.663Z,11.40
2023-01-09T20:24:17.537Z,11.38
2023-01-09T20:26:51.538Z,11.18
2023-01-09T20:29:19.578Z,9.70
2023-01-09T20:31:48.024Z,8.95
2023-01-09T20:34:16.184Z,10.97
2023-01-09T20:36:44.316Z,12.23
2023-01-09T20:39:12.745Z,33.58
2023-01-09T20:41:40.989Z,49.08
2023-01-09T20:44:12.321Z,14.85
2023-01-09T20:46:45.114Z,10.63
2023-01-09T20:49:14.560Z,10.35
2023-01-09T20:51:46.528Z,9.20
2023-01-09T20:54:16.020Z,9.80
2023-01-09T20:56:44.384Z,9.25
2023-01-09T20:59:15.396Z,9.20
2023-01-09T21:01:43.714Z,13.02
2023-01-09T21:04:11.594Z,14.18
2023-01-09T21:06:39.988Z,11.90
2023-01-09T21:09:07.903Z,11.00
2023-01-09T21:11:35.987Z,10.10
2023-01-09T21:14:03.729Z,10.13
2023-01-09T21:16:32.053Z,13.68
2023-01-09T21:19:00.138Z,9.55
2023-01-09T21:21:28.389Z,10.77
2023-01-09T21:23:58.794Z,10.13
2023-01-09T21:26:30.881Z,8.60
2023-01-09T21:29:00.286Z,6.85
2023-01-09T21:31:35.049Z,9.18
2023-01-09T21:34:06.797Z,6.88
2023-01-09T21:36:38.200Z,8.00
2023-01-09T21:39:08.338Z,9.00
2023-01-09T21:41:55.359Z,9.70
2023-01-09T21:44:41.728Z,8.25
2023-01-09T21:47:09.768Z,8.05
2023-01-09T21:49:41.173Z,8.20
2023-01-09T21:52:14.502Z,10.05
2023-01-09T21:54:42.930Z,9.15
2023-01-09T21:57:11.542Z,9.25
2023-01-09T21:59:39.500Z,11.10
2023-01-09T22:02:10.359Z,9.37
2023-01-09T22:04:39.289Z,7.45
2023-01-09T22:07:07.241Z,8.95
2023-01-09T22:09:35.042Z,14.17
2023-01-09T22:12:04.412Z,12.27
2023-01-09T22:14:32.265Z,17.35
2023-01-09T22:17:00.146Z,18.80
2023-01-09T22:19:28.323Z,16.73
2023-01-09T22:21:56.409Z,13.35
2023-01-09T22:24:24.625Z,12.23
2023-01-09T22:26:52.577Z,10.70
2023-01-09T22:29:22.650Z,10.65
2023-01-09T22:31:50.956Z,9.23
2023-01-09T22:34:19.765Z,10.68
2023-01-09T22:36:48.143Z,10.50
2023-01-09T22:39:18.343Z,11.38
2023-01-09T22:41:55.331Z,9.90
2023-01-09T22:44:23.052Z,9.83
2023-01-09T22:46:51.023Z,9.45
2023-01-09T22:49:18.775Z,10.43
2023-01-09T22:51:46.839Z,9.75
2023-01-09T22:54:14.904Z,10.13
2023-01-09T22:56:42.997Z,10.17
2023-01-09T22:59:10.774Z,8.63
2023-01-09T23:01:38.728Z,9.82
2023-01-09T23:04:07.030Z,9.68
2023-01-09T23:06:35.059Z,9.25
2023-01-09T23:09:05.900Z,8.50
2023-01-09T23:11:52.439Z,8.35
2023-01-09T23:14:21.898Z,10.35
2023-01-09T23:16:50.150Z,8.70
2023-01-09T23:19:18.099Z,11.27
2023-01-09T23:21:46.217Z,9.30
2023-01-09T23:24:16.507Z,9.35
2023-01-09T23:26:45.083Z,6.28
2023-01-09T23:29:13.675Z,6.43
2023-01-09T23:31:42.208Z,8.02
2023-01-09T23:34:15.709Z,8.07
2023-01-09T23:36:45.254Z,8.52
2023-01-09T23:39:13.409Z,8.60
2023-01-09T23:42:01.205Z,8.13
2023-01-09T23:44:29.373Z,7.93
2023-01-09T23:46:58.152Z,7.27
2023-01-09T23:49:26.151Z,8.55
2023-01-09T23:51:54.302Z,6.07
2023-01-09T23:54:22.182Z,6.53
2023-01-09T23:56:50.648Z,7.15
2023-01-09T23:59:18.882Z,7.47
